createdAt,value
2017-11-22T00:00:46.584Z,10.64
2017-11-22T00:01:46.615Z,10.71
2017-11-22T00:02:46.362Z,10.53
2017-11-22T00:03:46.391Z,10.51
2017-11-22T00:04:46.687Z,10.54
2017-11-22T00:05:46.410Z,10.59
2017-11-22T00:06:46.690Z,10.74
2017-11-22T00:07:46.726Z,10.56
2017-11-22T00:08:46.723Z,10.59
2017-11-22T00:09:46.226Z,10.71
2017-11-22T00:10:46.767Z,10.67
2017-11-22T00:11:46.829Z,10.67
2017-11-22T00:12:46.539Z,10.67
2017-11-22T00:13:46.554Z,10.69
2017-11-22T00:14:46.837Z,10.74
2017-11-22T00:15:46.847Z,10.54
2017-11-22T00:16:46.877Z,10.64
2017-11-22T00:17:46.911Z,10.49
2017-11-22T00:18:46.647Z,10.67
2017-11-22T00:19:46.662Z,10.67
2017-11-22T00:20:46.952Z,10.68
2017-11-22T00:21:46.952Z,10.71
2017-11-22T00:22:46.716Z,10.61
2017-11-22T00:23:47.005Z,10.6
2017-11-22T00:24:47.010Z,10.6
2017-11-22T00:25:46.771Z,10.51
2017-11-22T00:26:47.108Z,10.67
2017-11-22T00:27:46.807Z,10.53
2017-11-22T00:28:46.825Z,10.53
2017-11-22T00:29:47.099Z,10.54
2017-11-22T00:30:46.871Z,10.61
2017-11-22T00:31:46.885Z,10.61
2017-11-22T00:32:46.899Z,10.63
2017-11-22T00:33:47.169Z,10.49
2017-11-22T00:34:46.933Z,10.53
2017-11-22T00:35:46.964Z,10.49
2017-11-22T00:36:46.965Z,10.46
2017-11-22T00:37:47.255Z,10.54
2017-11-22T00:38:46.998Z,10.54
2017-11-22T00:39:47.279Z,10.46
2017-11-22T00:40:47.032Z,10.44
2017-11-22T00:41:47.054Z,10.51
2017-11-22T00:42:47.334Z,10.53
2017-11-22T00:43:47.089Z,10.48
2017-11-22T00:44:47.367Z,10.41
2017-11-22T00:45:47.404Z,10.54
2017-11-22T00:46:47.397Z,10.54
2017-11-22T00:47:47.420Z,10.42
2017-11-22T00:48:46.918Z,10.49
2017-11-22T00:49:47.194Z,10.54
2017-11-22T00:50:47.479Z,10.54
2017-11-22T00:51:47.495Z,10.48
2017-11-22T00:52:47.259Z,10.49
2017-11-22T00:53:47.524Z,10.59
2017-11-22T00:54:47.288Z,10.49
2017-11-22T00:55:47.576Z,10.46
2017-11-22T00:56:47.610Z,10.46
2017-11-22T00:57:47.595Z,10.46
2017-11-22T00:58:47.406Z,10.53
2017-11-22T00:59:47.394Z,10.48
2017-11-22T01:00:47.657Z,10.57
2017-11-22T01:01:47.662Z,10.48
2017-11-22T01:02:47.432Z,10.44
2017-11-22T01:03:47.699Z,10.53
2017-11-22T01:04:47.714Z,10.51
2017-11-22T01:05:47.480Z,10.4
2017-11-22T01:06:47.506Z,10.41
2017-11-22T01:07:47.772Z,10.59
2017-11-22T01:08:47.533Z,10.51
2017-11-22T01:09:47.293Z,10.51
2017-11-22T01:10:47.832Z,10.49
2017-11-22T01:11:47.844Z,10.46
2017-11-22T01:12:47.867Z,10.49
2017-11-22T01:13:47.875Z,10.48
2017-11-22T01:14:47.966Z,10.44
2017-11-22T01:15:47.925Z,10.51
2017-11-22T01:16:47.683Z,10.53
2017-11-22T01:17:47.951Z,10.51
2017-11-22T01:18:47.978Z,10.56
2017-11-22T01:19:47.734Z,10.53
2017-11-22T01:20:47.751Z,10.59
2017-11-22T01:21:47.759Z,10.54
2017-11-22T01:22:48.034Z,10.53
2017-11-22T01:23:47.799Z,10.48
2017-11-22T01:24:48.084Z,10.51
2017-11-22T01:25:47.827Z,10.49
2017-11-22T01:26:48.107Z,10.57
2017-11-22T01:27:47.863Z,10.46
2017-11-22T01:28:48.140Z,10.41
2017-11-22T01:29:48.154Z,10.46
2017-11-22T01:30:47.917Z,10.51
2017-11-22T01:31:48.188Z,10.49
2017-11-22T01:32:48.214Z,10.54
2017-11-22T01:33:48.227Z,10.54
2017-11-22T01:34:47.986Z,10.3
2017-11-22T01:35:48.262Z,10.42
2017-11-22T01:36:48.032Z,10.44
2017-11-22T01:37:48.294Z,10.44
2017-11-22T01:38:48.313Z,10.44
2017-11-22T01:39:48.338Z,10.44
2017-11-22T01:40:48.356Z,10.4
2017-11-22T01:41:48.364Z,10.35
2017-11-22T01:42:48.385Z,10.26
2017-11-22T01:43:48.401Z,10.33
2017-11-22T01:44:47.905Z,10.34
2017-11-22T01:45:48.435Z,10.37
2017-11-22T01:46:48.202Z,10.3
2017-11-22T01:47:48.477Z,10.31
2017-11-22T01:48:48.544Z,10.22
2017-11-22T01:49:48.508Z,10.33
2017-11-22T01:50:48.007Z,10.28
2017-11-22T01:51:48.308Z,10.34
2017-11-22T01:52:48.044Z,10.28
2017-11-22T01:53:48.324Z,10.37
2017-11-22T01:54:48.601Z,10.34
2017-11-22T01:55:48.358Z,10.37
2017-11-22T01:56:48.624Z,10.28
2017-11-22T01:57:48.645Z,10.28
2017-11-22T01:58:48.682Z,10.26
2017-11-22T01:59:48.690Z,10.33
2017-11-22T02:00:48.702Z,10.4
2017-11-22T02:01:48.456Z,10.42
2017-11-22T02:02:48.479Z,10.38
2017-11-22T02:03:48.232Z,10.38
2017-11-22T02:04:48.769Z,10.3
2017-11-22T02:05:48.789Z,10.35
2017-11-22T02:06:48.795Z,10.31
2017-11-22T02:07:48.867Z,10.35
2017-11-22T02:08:48.836Z,10.3
2017-11-22T02:09:48.605Z,10.31
2017-11-22T02:10:48.864Z,10.34
2017-11-22T02:11:48.628Z,10.34
2017-11-22T02:12:48.657Z,10.33
2017-11-22T02:13:48.414Z,10.3
2017-11-22T02:14:48.945Z,10.37
2017-11-22T02:15:48.796Z,10.37
2017-11-22T02:16:48.720Z,10.33
2017-11-22T02:17:48.989Z,10.33
2017-11-22T02:18:49.014Z,10.3
2017-11-22T02:19:49.028Z,10.23
2017-11-22T02:20:48.784Z,10.28
2017-11-22T02:21:48.799Z,10.4
2017-11-22T02:22:48.852Z,10.3
2017-11-22T02:23:48.582Z,10.33
2017-11-22T02:24:48.876Z,10.31
2017-11-22T02:25:49.177Z,10.2
2017-11-22T02:26:49.146Z,10.25
2017-11-22T02:27:49.176Z,10.28
2017-11-22T02:28:49.186Z,10.41
2017-11-22T02:29:49.195Z,10.26
2017-11-22T02:30:49.293Z,10.16
2017-11-22T02:31:48.721Z,10.28
2017-11-22T02:32:49.249Z,10.28
2017-11-22T02:33:49.027Z,10.3
2017-11-22T02:34:49.292Z,10.35
2017-11-22T02:35:49.314Z,10.41
2017-11-22T02:36:49.071Z,10.34
2017-11-22T02:37:49.082Z,10.26
2017-11-22T02:38:49.374Z,10.34
2017-11-22T02:39:49.370Z,10.22
2017-11-22T02:40:49.139Z,10.25
2017-11-22T02:41:49.468Z,10.28
2017-11-22T02:42:49.428Z,10.26
2017-11-22T02:43:48.929Z,10.31
2017-11-22T02:44:49.221Z,10.3
2017-11-22T02:45:49.489Z,10.2
2017-11-22T02:46:49.248Z,10.3
2017-11-22T02:47:49.513Z,10.26
2017-11-22T02:48:49.536Z,10.09
2017-11-22T02:49:49.551Z,10.2
2017-11-22T02:50:49.320Z,10.25
2017-11-22T02:51:49.325Z,10.15
2017-11-22T02:52:49.608Z,10.09
2017-11-22T02:53:49.637Z,10.05
2017-11-22T02:54:49.633Z,10.15
2017-11-22T02:55:49.651Z,10.07
2017-11-22T02:56:49.460Z,10.19
2017-11-22T02:57:49.681Z,10.09
2017-11-22T02:58:49.723Z,10.04
2017-11-22T02:59:49.466Z,9.95
2017-11-22T03:00:49.489Z,9.95
2017-11-22T03:01:49.514Z,9.99
2017-11-22T03:02:49.515Z,10.05
2017-11-22T03:03:49.819Z,10.07
2017-11-22T03:04:49.807Z,10.02
2017-11-22T03:05:49.847Z,9.91
2017-11-22T03:06:49.841Z,9.83
2017-11-22T03:07:49.598Z,10.05
2017-11-22T03:08:49.622Z,10.01
2017-11-22T03:09:49.902Z,10.07
2017-11-22T03:10:49.911Z,9.94
2017-11-22T03:11:50.009Z,9.92
2017-11-22T03:12:49.943Z,10.02
2017-11-22T03:13:49.966Z,9.94
2017-11-22T03:14:49.980Z,10.09
2017-11-22T03:15:50.009Z,9.91
2017-11-22T03:16:50.013Z,9.98
2017-11-22T03:17:50.030Z,9.92
2017-11-22T03:18:50.058Z,9.87
2017-11-22T03:19:50.063Z,10.02
2017-11-22T03:20:50.081Z,9.98
2017-11-22T03:21:50.113Z,9.97
2017-11-22T03:22:50.110Z,9.94
2017-11-22T03:23:50.130Z,10.01
2017-11-22T03:24:50.150Z,10.07
2017-11-22T03:25:50.172Z,10.07
2017-11-22T03:26:50.185Z,10.07
2017-11-22T03:27:50.204Z,10.05
2017-11-22T03:28:50.383Z,10.04
2017-11-22T03:29:49.974Z,9.94
2017-11-22T03:30:50.008Z,10.01
2017-11-22T03:31:50.019Z,10.09
2017-11-22T03:32:50.285Z,9.98
2017-11-22T03:33:50.301Z,10.02
2017-11-22T03:34:50.323Z,10.04
2017-11-22T03:35:50.344Z,10.02
2017-11-22T03:36:50.378Z,10.02
2017-11-22T03:37:49.863Z,10.09
2017-11-22T03:38:50.397Z,10.02
2017-11-22T03:39:50.151Z,10.07
2017-11-22T03:40:50.421Z,9.99
2017-11-22T03:41:49.932Z,9.99
2017-11-22T03:42:50.225Z,10.07
2017-11-22T03:43:50.222Z,10.05
2017-11-22T03:44:50.500Z,10.07
2017-11-22T03:45:50.516Z,9.92
2017-11-22T03:46:50.274Z,10.07
2017-11-22T03:47:50.341Z,10.05
2017-11-22T03:48:50.313Z,10.1
2017-11-22T03:49:50.589Z,10.05
2017-11-22T03:50:50.091Z,10.1
2017-11-22T03:51:50.628Z,9.99
2017-11-22T03:52:50.641Z,10.04
2017-11-22T03:53:50.654Z,10.1
2017-11-22T03:54:50.711Z,10.09
2017-11-22T03:55:50.433Z,10.04
2017-11-22T03:56:50.462Z,10.07
2017-11-22T03:57:50.474Z,10.12
2017-11-22T03:58:50.487Z,10.15
2017-11-22T03:59:50.779Z,10.15
2017-11-22T04:00:50.778Z,10.13
2017-11-22T04:01:50.792Z,10.05
2017-11-22T04:02:50.604Z,10.05
2017-11-22T04:03:50.836Z,10.15
2017-11-22T04:04:50.855Z,10.04
2017-11-22T04:05:50.864Z,10.07
2017-11-22T04:06:50.629Z,10.1
2017-11-22T04:07:50.640Z,10.01
2017-11-22T04:08:50.409Z,10.04
2017-11-22T04:09:50.429Z,10.02
2017-11-22T04:10:50.696Z,9.95
2017-11-22T04:11:50.973Z,10.05
2017-11-22T04:12:50.727Z,9.94
2017-11-22T04:13:50.744Z,9.83
2017-11-22T04:14:51.025Z,9.82
2017-11-22T04:15:51.039Z,9.87
2017-11-22T04:16:50.547Z,9.84
2017-11-22T04:17:51.129Z,9.86
2017-11-22T04:18:51.095Z,9.8
2017-11-22T04:19:51.118Z,9.74
2017-11-22T04:20:50.870Z,9.83
2017-11-22T04:21:51.142Z,9.84
2017-11-22T04:22:51.907Z,9.83
2017-11-22T04:23:50.921Z,9.77
2017-11-22T04:24:51.203Z,9.69
2017-11-22T04:25:51.227Z,9.72
2017-11-22T04:26:51.231Z,9.72
2017-11-22T04:27:50.999Z,9.72
2017-11-22T04:28:51.013Z,9.73
2017-11-22T04:29:51.024Z,9.62
2017-11-22T04:30:51.301Z,9.61
2017-11-22T04:31:51.314Z,9.56
2017-11-22T04:32:51.386Z,9.51
2017-11-22T04:33:51.099Z,9.62
2017-11-22T04:34:51.371Z,9.58
2017-11-22T04:35:51.385Z,9.68
2017-11-22T04:36:51.402Z,9.64
2017-11-22T04:37:51.166Z,9.51
2017-11-22T04:38:51.185Z,9.5
2017-11-22T04:39:51.472Z,9.48
2017-11-22T04:40:51.476Z,9.47
2017-11-22T04:41:51.244Z,9.48
2017-11-22T04:42:51.248Z,9.44
2017-11-22T04:43:51.269Z,9.46
2017-11-22T04:44:51.540Z,9.43
2017-11-22T04:45:51.305Z,9.51
2017-11-22T04:46:51.580Z,9.4
2017-11-22T04:47:51.593Z,9.4
2017-11-22T04:48:51.348Z,9.41
2017-11-22T04:49:51.639Z,9.4
2017-11-22T04:50:51.644Z,9.36
2017-11-22T04:51:51.454Z,9.36
2017-11-22T04:52:51.683Z,9.36
2017-11-22T04:53:51.444Z,9.37
2017-11-22T04:54:51.733Z,9.39
2017-11-22T04:55:51.736Z,9.36
2017-11-22T04:56:51.602Z,9.36
2017-11-22T04:57:51.534Z,9.28
2017-11-22T04:58:51.526Z,9.25
2017-11-22T04:59:51.805Z,9.29
2017-11-22T05:00:51.829Z,9.23
2017-11-22T05:01:51.835Z,9.32
2017-11-22T05:02:51.596Z,9.22
2017-11-22T05:03:51.353Z,9.16
2017-11-22T05:04:51.884Z,9.06
2017-11-22T05:05:51.906Z,9.08
2017-11-22T05:06:51.919Z,9.1
2017-11-22T05:07:51.682Z,9.08
2017-11-22T05:08:51.952Z,8.97
2017-11-22T05:09:51.505Z,8.92
2017-11-22T05:10:51.991Z,9.03
2017-11-22T05:11:51.742Z,8.99
2017-11-22T05:12:51.761Z,9
2017-11-22T05:13:52.037Z,8.97
2017-11-22T05:14:51.800Z,8.94
2017-11-22T05:15:52.075Z,8.87
2017-11-22T05:16:52.085Z,8.79
2017-11-22T05:17:51.854Z,8.78
2017-11-22T05:18:51.607Z,8.81
2017-11-22T05:19:51.896Z,8.82
2017-11-22T05:20:52.163Z,8.7
2017-11-22T05:21:51.921Z,8.76
2017-11-22T05:22:52.200Z,8.69
2017-11-22T05:23:51.944Z,8.7
2017-11-22T05:24:52.273Z,8.7
2017-11-22T05:25:52.240Z,8.69
2017-11-22T05:26:51.995Z,8.64
2017-11-22T05:27:52.015Z,8.73
2017-11-22T05:28:52.291Z,8.76
2017-11-22T05:29:52.304Z,8.69
2017-11-22T05:30:52.066Z,8.66
2017-11-22T05:31:51.826Z,8.56
2017-11-22T05:32:52.357Z,8.76
2017-11-22T05:33:52.379Z,8.56
2017-11-22T05:34:52.387Z,8.56
2017-11-22T05:35:52.404Z,8.63
2017-11-22T05:36:52.159Z,8.71
2017-11-22T05:37:52.187Z,8.73
2017-11-22T05:38:52.455Z,8.69
2017-11-22T05:39:52.520Z,8.71
2017-11-22T05:40:52.228Z,8.6
2017-11-22T05:41:52.507Z,8.56
2017-11-22T05:42:52.261Z,8.58
2017-11-22T05:43:52.563Z,8.71
2017-11-22T05:44:52.574Z,8.7
2017-11-22T05:45:52.629Z,8.7
2017-11-22T05:46:52.333Z,8.63
2017-11-22T05:47:52.347Z,8.64
2017-11-22T05:48:52.624Z,8.51
2017-11-22T05:49:52.654Z,8.45
2017-11-22T05:50:52.651Z,8.52
2017-11-22T05:51:52.667Z,8.49
2017-11-22T05:52:52.171Z,8.49
2017-11-22T05:53:52.721Z,8.46
2017-11-22T05:54:52.776Z,8.46
2017-11-22T05:55:52.493Z,8.46
2017-11-22T05:56:52.757Z,8.44
2017-11-22T05:57:52.772Z,8.51
2017-11-22T05:58:52.535Z,8.48
2017-11-22T05:59:52.902Z,8.51
2017-11-22T06:00:52.818Z,8.52
2017-11-22T06:01:52.575Z,8.48
2017-11-22T06:02:52.850Z,8.51
2017-11-22T06:03:52.873Z,8.51
2017-11-22T06:04:52.979Z,8.45
2017-11-22T06:05:52.911Z,8.37
2017-11-22T06:06:52.659Z,8.46
2017-11-22T06:07:52.673Z,8.51
2017-11-22T06:08:52.950Z,8.31
2017-11-22T06:09:52.758Z,8.44
2017-11-22T06:10:52.721Z,8.49
2017-11-22T06:11:53.006Z,8.48
2017-11-22T06:12:52.756Z,8.49
2017-11-22T06:13:53.027Z,8.45
2017-11-22T06:14:52.785Z,8.48
2017-11-22T06:15:53.075Z,8.44
2017-11-22T06:16:53.087Z,8.61
2017-11-22T06:17:52.849Z,8.53
2017-11-22T06:18:52.855Z,8.58
2017-11-22T06:19:52.868Z,8.6
2017-11-22T06:20:52.891Z,8.34
2017-11-22T06:21:53.159Z,8.46
2017-11-22T06:22:52.920Z,8.49
2017-11-22T06:23:52.942Z,8.58
2017-11-22T06:24:53.262Z,8.49
2017-11-22T06:25:52.973Z,8.49
2017-11-22T06:26:53.249Z,8.48
2017-11-22T06:27:53.004Z,8.58
2017-11-22T06:28:53.020Z,8.55
2017-11-22T06:29:53.306Z,8.69
2017-11-22T06:30:52.797Z,8.52
2017-11-22T06:31:53.070Z,8.69
2017-11-22T06:32:53.083Z,8.56
2017-11-22T06:33:53.366Z,8.69
2017-11-22T06:34:53.385Z,8.53
2017-11-22T06:35:53.403Z,8.55
2017-11-22T06:36:53.409Z,8.58
2017-11-22T06:37:53.426Z,8.52
2017-11-22T06:38:53.444Z,8.6
2017-11-22T06:39:53.251Z,8.66
2017-11-22T06:40:53.222Z,8.55
2017-11-22T06:41:53.233Z,8.71
2017-11-22T06:42:53.510Z,8.71
2017-11-22T06:43:53.528Z,8.61
2017-11-22T06:44:53.542Z,8.73
2017-11-22T06:45:53.305Z,8.71
2017-11-22T06:46:53.585Z,8.63
2017-11-22T06:47:53.340Z,8.66
2017-11-22T06:48:53.351Z,8.71
2017-11-22T06:49:53.665Z,8.76
2017-11-22T06:50:53.406Z,8.71
2017-11-22T06:51:53.398Z,8.61
2017-11-22T06:52:53.673Z,8.69
2017-11-22T06:53:53.693Z,8.69
2017-11-22T06:54:53.759Z,8.71
2017-11-22T06:55:53.468Z,8.74
2017-11-22T06:56:53.488Z,8.71
2017-11-22T06:57:53.756Z,8.66
2017-11-22T06:58:53.527Z,8.78
2017-11-22T06:59:53.799Z,8.71
2017-11-22T07:00:53.546Z,8.71
2017-11-22T07:01:53.566Z,8.82
2017-11-22T07:02:53.618Z,8.74
2017-11-22T07:03:53.871Z,8.81
2017-11-22T07:04:53.870Z,8.85
2017-11-22T07:05:53.634Z,8.81
2017-11-22T07:06:53.646Z,8.84
2017-11-22T07:07:53.662Z,8.94
2017-11-22T07:08:53.941Z,8.97
2017-11-22T07:09:53.956Z,8.95
2017-11-22T07:10:53.969Z,9.1
2017-11-22T07:11:54.057Z,9
2017-11-22T07:12:53.758Z,9.04
2017-11-22T07:13:54.024Z,9.1
2017-11-22T07:14:53.779Z,9.22
2017-11-22T07:15:54.067Z,9.18
2017-11-22T07:16:54.096Z,9.29
2017-11-22T07:17:54.099Z,9.31
2017-11-22T07:18:54.105Z,9.34
2017-11-22T07:19:54.132Z,9.31
2017-11-22T07:20:54.147Z,9.34
2017-11-22T07:21:54.154Z,9.34
2017-11-22T07:22:54.172Z,9.44
2017-11-22T07:23:53.929Z,9.47
2017-11-22T07:24:53.949Z,9.4
2017-11-22T07:25:53.709Z,9.43
2017-11-22T07:26:53.981Z,9.55
2017-11-22T07:27:54.000Z,9.62
2017-11-22T07:28:54.213Z,9.66
2017-11-22T07:29:54.032Z,9.64
2017-11-22T07:30:54.309Z,9.65
2017-11-22T07:31:54.339Z,9.82
2017-11-22T07:32:54.081Z,9.82
2017-11-22T07:33:54.101Z,9.83
2017-11-22T07:34:54.374Z,9.87
2017-11-22T07:35:54.130Z,9.91
2017-11-22T07:36:54.416Z,9.92
2017-11-22T07:37:54.423Z,9.92
2017-11-22T07:38:54.453Z,10.07
2017-11-22T07:39:54.464Z,10.09
2017-11-22T07:40:54.489Z,10.15
2017-11-22T07:41:54.244Z,10.15
2017-11-22T07:42:54.510Z,10.16
2017-11-22T07:43:54.323Z,10.1
2017-11-22T07:44:54.548Z,10.17
2017-11-22T07:45:54.558Z,10.19
2017-11-22T07:46:54.583Z,10.22
2017-11-22T07:47:54.601Z,10.34
2017-11-22T07:48:54.616Z,10.38
2017-11-22T07:49:54.632Z,10.44
2017-11-22T07:50:54.401Z,10.42
2017-11-22T07:51:54.410Z,10.48
2017-11-22T07:52:54.685Z,10.6
2017-11-22T07:53:54.697Z,10.61
2017-11-22T07:54:54.735Z,10.61
2017-11-22T07:55:54.743Z,10.71
2017-11-22T07:56:54.764Z,10.72
2017-11-22T07:57:54.769Z,10.87
2017-11-22T07:58:54.802Z,10.89
2017-11-22T07:59:54.809Z,10.9
2017-11-22T08:00:54.569Z,10.89
2017-11-22T08:01:54.856Z,11.11
2017-11-22T08:02:54.880Z,11.05
2017-11-22T08:03:54.900Z,11.05
2017-11-22T08:04:54.645Z,11.08
2017-11-22T08:05:54.924Z,11.11
2017-11-22T08:06:54.937Z,11.15
2017-11-22T08:07:54.702Z,11.17
2017-11-22T08:08:54.972Z,11.25
2017-11-22T08:09:54.995Z,11.25
2017-11-22T08:10:54.760Z,11.35
2017-11-22T08:11:55.027Z,11.35
2017-11-22T08:12:55.045Z,11.4
2017-11-22T08:13:55.069Z,11.4
2017-11-22T08:14:54.822Z,11.51
2017-11-22T08:15:54.859Z,11.54
2017-11-22T08:16:55.119Z,11.6
2017-11-22T08:17:55.139Z,11.57
2017-11-22T08:18:54.952Z,11.66
2017-11-22T08:19:55.176Z,11.6
2017-11-22T08:20:54.939Z,11.75
2017-11-22T08:21:55.210Z,11.9
2017-11-22T08:22:55.249Z,11.94
2017-11-22T08:23:54.991Z,11.94
2017-11-22T08:24:55.270Z,11.97
2017-11-22T08:25:55.316Z,11.99
2017-11-22T08:26:55.308Z,11.95
2017-11-22T08:27:55.329Z,11.94
2017-11-22T08:28:55.356Z,12
2017-11-22T08:29:54.852Z,12.06
2017-11-22T08:30:55.138Z,12.09
2017-11-22T08:31:54.902Z,12.12
2017-11-22T08:32:55.165Z,12.18
2017-11-22T08:33:55.495Z,12.27
2017-11-22T08:34:55.462Z,12.37
2017-11-22T08:35:55.225Z,12.46
2017-11-22T08:36:55.241Z,12.47
2017-11-22T08:37:55.527Z,12.6
2017-11-22T08:38:55.537Z,12.55
2017-11-22T08:39:55.320Z,12.68
2017-11-22T08:40:55.585Z,12.55
2017-11-22T08:41:55.338Z,12.62
2017-11-22T08:42:55.354Z,12.76
2017-11-22T08:43:55.641Z,12.83
2017-11-22T08:44:55.652Z,12.8
2017-11-22T08:45:55.413Z,12.9
2017-11-22T08:46:55.692Z,12.94
2017-11-22T08:47:55.713Z,13
2017-11-22T08:48:55.472Z,13.04
2017-11-22T08:49:55.760Z,12.95
2017-11-22T08:50:55.565Z,13.04
2017-11-22T08:51:55.531Z,13
2017-11-22T08:52:55.808Z,13.16
2017-11-22T08:53:55.832Z,13.23
2017-11-22T08:54:55.336Z,13.33
2017-11-22T08:55:55.628Z,13.42
2017-11-22T08:56:55.886Z,13.39
2017-11-22T08:57:55.908Z,13.57
2017-11-22T08:58:55.673Z,13.67
2017-11-22T08:59:55.955Z,13.6
2017-11-22T09:00:55.715Z,13.74
2017-11-22T09:01:55.474Z,13.85
2017-11-22T09:02:55.494Z,13.87
2017-11-22T09:03:56.037Z,14
2017-11-22T09:04:55.797Z,14.05
2017-11-22T09:05:55.812Z,14.08
2017-11-22T09:06:56.088Z,14.11
2017-11-22T09:07:56.119Z,14.1
2017-11-22T09:08:56.180Z,14.23
2017-11-22T09:09:56.150Z,14.28
2017-11-22T09:10:55.915Z,14.22
2017-11-22T09:11:56.201Z,14.18
2017-11-22T09:12:55.695Z,14.12
2017-11-22T09:13:55.979Z,13.99
2017-11-22T09:14:56.256Z,14.07
2017-11-22T09:15:56.289Z,14.17
2017-11-22T09:16:56.040Z,14.2
2017-11-22T09:17:56.067Z,14.25
2017-11-22T09:18:56.337Z,14.18
2017-11-22T09:19:56.357Z,14.32
2017-11-22T09:20:56.390Z,14.36
2017-11-22T09:21:56.415Z,14.37
2017-11-22T09:22:56.163Z,14.45
2017-11-22T09:23:55.975Z,14.51
2017-11-22T09:24:56.464Z,14.59
2017-11-22T09:25:56.231Z,14.59
2017-11-22T09:26:56.500Z,14.72
2017-11-22T09:27:56.269Z,14.69
2017-11-22T09:28:56.544Z,14.63
2017-11-22T09:29:56.580Z,14.58
2017-11-22T09:30:56.583Z,14.6
2017-11-22T09:31:56.617Z,14.77
2017-11-22T09:32:56.672Z,14.84
2017-11-22T09:33:56.668Z,14.84
2017-11-22T09:34:56.667Z,14.85
2017-11-22T09:35:56.693Z,14.89
2017-11-22T09:36:56.449Z,14.86
2017-11-22T09:37:56.771Z,14.88
2017-11-22T09:38:56.545Z,15.06
2017-11-22T09:39:56.769Z,14.91
2017-11-22T09:40:56.801Z,14.85
2017-11-22T09:41:56.825Z,14.92
2017-11-22T09:42:56.838Z,14.96
2017-11-22T09:43:56.871Z,15.02
2017-11-22T09:44:56.630Z,15.17
2017-11-22T09:45:56.659Z,15.35
2017-11-22T09:46:56.664Z,15.4
2017-11-22T09:47:56.688Z,15.44
2017-11-22T09:48:56.708Z,15.65
2017-11-22T09:49:56.763Z,15.8
2017-11-22T09:50:57.039Z,15.94
2017-11-22T09:51:56.777Z,16.21
2017-11-22T09:52:57.063Z,16.46
2017-11-22T09:53:56.875Z,16.66
2017-11-22T09:54:57.105Z,16.72
2017-11-22T09:55:57.169Z,16.76
2017-11-22T09:56:56.905Z,16.72
2017-11-22T09:57:57.184Z,16.76
2017-11-22T09:58:56.945Z,16.94
2017-11-22T09:59:56.974Z,17.26
2017-11-22T10:00:57.266Z,17.33
2017-11-22T10:01:57.308Z,17.24
2017-11-22T10:02:57.052Z,17.38
2017-11-22T10:03:57.333Z,17.44
2017-11-22T10:04:57.358Z,17.67
2017-11-22T10:05:57.381Z,17.68
2017-11-22T10:06:57.152Z,17.85
2017-11-22T10:07:57.177Z,17.8
2017-11-22T10:08:57.462Z,17.56
2017-11-22T10:09:57.505Z,17.51
2017-11-22T10:10:57.266Z,17.51
2017-11-22T10:11:57.596Z,17.59
2017-11-22T10:12:57.572Z,17.76
2017-11-22T10:13:57.488Z,18.2
2017-11-22T10:14:57.373Z,18.47
2017-11-22T10:15:57.136Z,18.73
2017-11-22T10:16:57.431Z,18.59
2017-11-22T10:17:57.454Z,18.7
2017-11-22T10:18:57.752Z,18.37
2017-11-22T10:19:57.766Z,18.71
2017-11-22T10:20:57.277Z,18.75
2017-11-22T10:21:57.558Z,18.84
2017-11-22T10:22:57.597Z,19.07
2017-11-22T10:23:57.617Z,19.12
2017-11-22T10:24:57.902Z,19.4
2017-11-22T10:25:57.931Z,19.76
2017-11-22T10:26:57.956Z,20.02
2017-11-22T10:27:57.733Z,20.09
2017-11-22T10:28:57.759Z,19.91
2017-11-22T10:29:57.837Z,20.25
2017-11-22T10:30:58.080Z,20.25
2017-11-22T10:31:57.845Z,19.99
2017-11-22T10:32:58.141Z,19.99
2017-11-22T10:33:57.904Z,19.99
2017-11-22T10:34:58.202Z,20.21
2017-11-22T10:35:58.228Z,20.32
2017-11-22T10:36:58.252Z,20.22
2017-11-22T10:37:58.026Z,20.31
2017-11-22T10:38:58.051Z,20.24
2017-11-22T10:39:58.091Z,20.37
2017-11-22T10:40:58.113Z,20.34
2017-11-22T10:41:58.136Z,20.22
2017-11-22T10:42:58.426Z,20.41
2017-11-22T10:43:58.203Z,20.56
2017-11-22T10:44:58.486Z,20.77
2017-11-22T10:45:58.577Z,21.03
2017-11-22T10:46:58.295Z,21.29
2017-11-22T10:47:58.577Z,21.73
2017-11-22T10:48:58.357Z,21.54
2017-11-22T10:49:58.646Z,21.8
2017-11-22T10:50:58.611Z,22.11
2017-11-22T10:51:58.697Z,22.04
2017-11-22T10:52:58.727Z,22.02
2017-11-22T10:53:58.506Z,21.91
2017-11-22T10:54:58.275Z,22.39
2017-11-22T10:55:58.564Z,22.23
2017-11-22T10:56:58.858Z,22.45
2017-11-22T10:57:58.884Z,22.99
2017-11-22T10:58:58.400Z,23.09
2017-11-22T10:59:58.949Z,23.09
2017-11-22T11:00:58.977Z,23.27
2017-11-22T11:01:59.019Z,23.37
2017-11-22T11:02:59.044Z,23.48
2017-11-22T11:03:59.069Z,23.63
2017-11-22T11:04:58.583Z,23.95
2017-11-22T11:05:58.876Z,24.1
2017-11-22T11:06:58.911Z,24.2
2017-11-22T11:07:58.936Z,24.17
2017-11-22T11:08:59.227Z,24.68
2017-11-22T11:09:59.026Z,24.43
2017-11-22T11:10:59.301Z,24.28
2017-11-22T11:11:59.074Z,24.42
2017-11-22T11:12:58.841Z,24.63
2017-11-22T11:13:59.175Z,24.2
2017-11-22T11:14:59.427Z,23.83
2017-11-22T11:15:59.478Z,23.91
2017-11-22T11:16:58.977Z,23.93
2017-11-22T11:17:59.525Z,23.98
2017-11-22T11:18:59.560Z,23.66
2017-11-22T11:19:59.395Z,23.32
2017-11-22T11:20:59.614Z,23.27
2017-11-22T11:21:59.651Z,23.31
2017-11-22T11:22:59.426Z,23.32
2017-11-22T11:23:59.734Z,23.34
2017-11-22T11:24:59.749Z,23.55
2017-11-22T11:25:59.525Z,23.61
2017-11-22T11:26:59.825Z,23.59
2017-11-22T11:27:59.842Z,23.92
2017-11-22T11:28:59.876Z,24.17
2017-11-22T11:29:59.651Z,24.33
2017-11-22T11:30:59.683Z,24.61
2017-11-22T11:32:00.017Z,24.4
2017-11-22T11:33:00.008Z,24.16
2017-11-22T11:33:59.785Z,24.57
2017-11-22T11:35:00.119Z,24.69
2017-11-22T11:35:59.857Z,24.95
2017-11-22T11:36:59.879Z,24.73
2017-11-22T11:37:59.668Z,24.86
2017-11-22T11:39:00.207Z,24.93
2017-11-22T11:40:00.240Z,24.6
2017-11-22T11:41:00.271Z,24.55
2017-11-22T11:42:00.307Z,24.68
2017-11-22T11:43:00.343Z,24.7
2017-11-22T11:44:00.112Z,25.03
2017-11-22T11:45:00.415Z,25.35
2017-11-22T11:45:59.916Z,25.32
2017-11-22T11:47:00.213Z,24.98
2017-11-22T11:48:00.508Z,24.78
2017-11-22T11:49:00.567Z,25.06
2017-11-22T11:50:00.597Z,25.53
2017-11-22T11:51:00.083Z,25.22
2017-11-22T11:52:00.638Z,25.18
2017-11-22T11:53:00.422Z,24.93
2017-11-22T11:54:00.184Z,25.07
2017-11-22T11:55:00.221Z,24.77
2017-11-22T11:56:00.252Z,24.69
2017-11-22T11:57:00.545Z,24.73
2017-11-22T11:58:00.848Z,24.86
2017-11-22T11:59:00.875Z,25.38
2017-11-22T12:00:00.643Z,25.87
2017-11-22T12:01:00.942Z,26.31
2017-11-22T12:02:00.961Z,26.55
2017-11-22T12:03:01.015Z,26.74
2017-11-22T12:04:01.063Z,26.37
2017-11-22T12:05:00.551Z,26.18
2017-11-22T12:06:01.103Z,25.81
2017-11-22T12:07:01.137Z,25.32
2017-11-22T12:08:01.242Z,25.03
2017-11-22T12:09:00.937Z,24.78
2017-11-22T12:10:00.979Z,24.73
2017-11-22T12:11:01.008Z,24.99
2017-11-22T12:12:01.041Z,25.13
2017-11-22T12:13:01.323Z,25.17
2017-11-22T12:14:01.108Z,25.44
2017-11-22T12:15:01.388Z,25.75
2017-11-22T12:16:01.162Z,25.53
2017-11-22T12:17:01.196Z,25.53
2017-11-22T12:18:01.480Z,25.53
2017-11-22T12:19:01.264Z,25.85
2017-11-22T12:20:01.547Z,26.03
2017-11-22T12:21:01.589Z,26.25
2017-11-22T12:22:01.613Z,26.48
2017-11-22T12:23:01.655Z,26.15
2017-11-22T12:24:01.679Z,25.93
2017-11-22T12:25:01.506Z,26.03
2017-11-22T12:26:01.490Z,26
2017-11-22T12:27:01.774Z,26
2017-11-22T12:28:01.553Z,26.05
2017-11-22T12:29:01.595Z,26
2017-11-22T12:30:01.882Z,25.88
2017-11-22T12:31:01.659Z,26
2017-11-22T12:32:01.686Z,26.15
2017-11-22T12:33:01.982Z,26.58
2017-11-22T12:34:01.495Z,26.63
2017-11-22T12:35:02.041Z,26.84
2017-11-22T12:36:02.081Z,27.21
2017-11-22T12:37:02.127Z,27.35
2017-11-22T12:38:02.144Z,27.77
2017-11-22T12:39:02.179Z,27.48
2017-11-22T12:40:02.002Z,27.77
2017-11-22T12:41:01.983Z,27.7
2017-11-22T12:42:02.274Z,27.98
2017-11-22T12:43:02.311Z,28.14
2017-11-22T12:44:02.345Z,28.45
2017-11-22T12:45:02.379Z,28.79
2017-11-22T12:46:02.151Z,28.89
2017-11-22T12:47:02.184Z,28.91
2017-11-22T12:48:02.222Z,29.16
2017-11-22T12:49:02.511Z,29.17
2017-11-22T12:50:02.555Z,29.23
2017-11-22T12:51:02.323Z,29.76
2017-11-22T12:52:02.622Z,29.76
2017-11-22T12:53:02.394Z,29.71
2017-11-22T12:54:02.449Z,29.27
2017-11-22T12:55:02.770Z,29.32
2017-11-22T12:56:02.500Z,29.35
2017-11-22T12:57:02.805Z,29.5
2017-11-22T12:58:02.836Z,29.32
2017-11-22T12:59:02.872Z,29.39
2017-11-22T13:00:02.890Z,29.07
2017-11-22T13:01:02.938Z,28.45
2017-11-22T13:02:02.708Z,28
2017-11-22T13:03:02.999Z,27.27
2017-11-22T13:04:03.033Z,27.85